createdAt,value
2017-08-14T00:00:48.738Z,15.2
2017-08-14T00:01:55.907Z,15.1
2017-08-14T00:03:03.386Z,15.1
2017-08-14T00:04:10.866Z,15.1
2017-08-14T00:05:18.647Z,15.1
2017-08-14T00:06:26.130Z,15.1
2017-08-14T00:07:33.609Z,15.1
2017-08-14T00:08:40.775Z,15.1
2017-08-14T00:09:48.245Z,15.1
2017-08-14T00:10:56.029Z,15.1
2017-08-14T00:12:03.516Z,15
2017-08-14T00:13:10.997Z,15
2017-08-14T00:14:18.493Z,15
2017-08-14T00:15:25.306Z,15
2017-08-14T00:16:33.090Z,15
2017-08-14T00:17:40.575Z,15
2017-08-14T00:18:48.288Z,15
2017-08-14T00:19:57.016Z,15
2017-08-14T00:21:04.489Z,15
2017-08-14T00:22:12.266Z,15
2017-08-14T00:23:19.414Z,15
2017-08-14T00:24:26.897Z,15.1
2017-08-14T00:25:34.378Z,15.1
2017-08-14T00:26:41.860Z,15.1
2017-08-14T00:27:49.638Z,15.1
2017-08-14T00:28:57.143Z,15.1
2017-08-14T00:30:04.297Z,15.1
2017-08-14T00:31:11.770Z,15.1
2017-08-14T00:32:18.930Z,15.1
2017-08-14T00:33:26.719Z,15.1
2017-08-14T00:34:34.203Z,15.1
2017-08-14T00:35:42.556Z,15.1
2017-08-14T00:36:50.037Z,15.1
2017-08-14T00:37:57.531Z,15.1
2017-08-14T00:39:04.977Z,15.1
2017-08-14T00:40:12.456Z,15.1
2017-08-14T00:41:19.603Z,15.1
2017-08-14T00:42:26.750Z,15.1
2017-08-14T00:43:34.240Z,15.1
2017-08-14T00:44:42.022Z,15.1
2017-08-14T00:45:49.174Z,15.1
2017-08-14T00:46:56.648Z,15.1
2017-08-14T00:48:03.799Z,15.1
2017-08-14T00:49:11.277Z,15
2017-08-14T00:50:18.729Z,15.1
2017-08-14T00:51:26.218Z,15.1
2017-08-14T00:52:33.368Z,15.1
2017-08-14T00:53:40.843Z,15.1
2017-08-14T00:54:48.330Z,15.1
2017-08-14T00:56:02.084Z,15
2017-08-14T00:57:09.564Z,15.1
2017-08-14T00:58:16.918Z,15
2017-08-14T00:59:24.394Z,15
2017-08-14T01:00:31.888Z,14.9
2017-08-14T01:01:39.663Z,14.9
2017-08-14T01:02:47.148Z,14.9
2017-08-14T01:03:54.628Z,14.9
2017-08-14T01:05:02.343Z,14.9
2017-08-14T01:06:09.821Z,14.9
2017-08-14T01:07:17.604Z,14.8
2017-08-14T01:08:24.754Z,14.8
2017-08-14T01:09:32.234Z,14.8
2017-08-14T01:10:39.712Z,14.8
2017-08-14T01:11:47.209Z,14.7
2017-08-14T01:12:54.989Z,14.7
2017-08-14T01:14:02.485Z,14.7
2017-08-14T01:15:09.978Z,14.7
2017-08-14T01:16:17.455Z,14.7
2017-08-14T01:17:24.933Z,14.7
2017-08-14T01:18:32.337Z,14.6
2017-08-14T01:19:39.816Z,14.6
2017-08-14T01:20:47.316Z,14.6
2017-08-14T01:21:54.789Z,14.6
2017-08-14T01:23:02.275Z,14.6
2017-08-14T01:24:09.729Z,14.6
2017-08-14T01:25:17.205Z,14.6
2017-08-14T01:26:24.685Z,14.6
2017-08-14T01:27:32.169Z,14.6
2017-08-14T01:28:39.315Z,14.6
2017-08-14T01:29:47.145Z,14.6
2017-08-14T01:30:54.798Z,14.6
2017-08-14T01:32:01.956Z,14.6
2017-08-14T01:33:09.666Z,14.6
2017-08-14T01:34:17.144Z,14.6
2017-08-14T01:35:24.924Z,14.6
2017-08-14T01:36:32.395Z,14.6
2017-08-14T01:37:39.875Z,14.6
2017-08-14T01:38:47.378Z,14.5
2017-08-14T01:39:54.860Z,14.5
2017-08-14T01:41:02.316Z,14.4
2017-08-14T01:42:09.801Z,14.4
2017-08-14T01:43:17.278Z,14.4
2017-08-14T01:44:24.428Z,14.4
2017-08-14T01:45:31.904Z,14.4
2017-08-14T01:46:39.688Z,14.4
2017-08-14T01:47:47.164Z,14.4
2017-08-14T01:48:54.644Z,14.4
2017-08-14T01:50:02.127Z,14.4
2017-08-14T01:51:09.613Z,14.4
2017-08-14T01:52:17.394Z,14.4
2017-08-14T01:53:24.894Z,14.4
2017-08-14T01:54:32.387Z,14.4
2017-08-14T01:55:39.868Z,14.4
2017-08-14T01:56:47.349Z,14.3
2017-08-14T01:57:54.455Z,14.3
2017-08-14T01:59:01.937Z,14.3
2017-08-14T02:00:09.090Z,14.3
2017-08-14T02:01:16.579Z,14.3
2017-08-14T02:02:24.056Z,14.3
2017-08-14T02:03:31.836Z,14.3
2017-08-14T02:04:39.308Z,14.2
2017-08-14T02:05:46.792Z,14.2
2017-08-14T02:06:54.277Z,14.2
2017-08-14T02:08:01.770Z,14.2
2017-08-14T02:09:09.567Z,14.1
2017-08-14T02:10:16.726Z,14.1
2017-08-14T02:11:23.894Z,14
2017-08-14T02:12:31.371Z,14.1
2017-08-14T02:13:38.516Z,14
2017-08-14T02:14:45.636Z,14
2017-08-14T02:15:53.114Z,14
2017-08-14T02:17:00.595Z,14
2017-08-14T02:18:08.092Z,14
2017-08-14T02:19:15.572Z,14
2017-08-14T02:20:23.351Z,14
2017-08-14T02:21:30.829Z,14
2017-08-14T02:22:37.323Z,14
2017-08-14T02:23:44.471Z,14
2017-08-14T02:24:51.964Z,14
2017-08-14T02:25:59.743Z,14
2017-08-14T02:27:07.225Z,14
2017-08-14T02:28:29.026Z,14
2017-08-14T02:29:36.179Z,14
2017-08-14T02:30:43.659Z,14
2017-08-14T02:31:51.445Z,13.9
2017-08-14T02:32:58.926Z,14
2017-08-14T02:34:06.076Z,13.9
2017-08-14T02:35:13.226Z,14
2017-08-14T02:36:20.705Z,14
2017-08-14T02:37:28.494Z,13.9
2017-08-14T02:38:35.971Z,13.9
2017-08-14T02:39:43.454Z,14
2017-08-14T02:40:50.935Z,13.9
2017-08-14T02:41:58.417Z,14
2017-08-14T02:43:05.872Z,14
2017-08-14T02:44:13.344Z,14
2017-08-14T02:45:20.822Z,14
2017-08-14T02:46:42.545Z,14
2017-08-14T02:47:49.687Z,14
2017-08-14T02:48:57.469Z,14
2017-08-14T02:50:04.624Z,14
2017-08-14T02:51:12.109Z,14
2017-08-14T02:52:19.588Z,14
2017-08-14T02:53:26.734Z,14
2017-08-14T02:54:34.520Z,14
2017-08-14T02:55:42.007Z,14
2017-08-14T02:56:49.482Z,14
2017-08-14T02:57:56.971Z,14
2017-08-14T02:59:04.454Z,14
2017-08-14T03:00:12.232Z,14
2017-08-14T03:01:19.388Z,14
2017-08-14T03:02:26.897Z,14
2017-08-14T03:03:34.387Z,14
2017-08-14T03:04:41.870Z,14
2017-08-14T03:05:49.654Z,14
2017-08-14T03:06:57.131Z,14
2017-08-14T03:08:04.611Z,14
2017-08-14T03:09:11.763Z,14
2017-08-14T03:10:19.241Z,14
2017-08-14T03:11:26.699Z,14
2017-08-14T03:12:34.180Z,14
2017-08-14T03:13:41.338Z,13.9
2017-08-14T03:14:48.830Z,13.9
2017-08-14T03:15:56.308Z,13.9
2017-08-14T03:17:04.102Z,13.9
2017-08-14T03:18:11.581Z,13.9
2017-08-14T03:19:18.748Z,13.9
2017-08-14T03:20:26.227Z,13.9
2017-08-14T03:21:33.704Z,13.9
2017-08-14T03:22:41.487Z,13.9
2017-08-14T03:23:48.970Z,13.9
2017-08-14T03:24:56.442Z,13.9
2017-08-14T03:26:03.919Z,13.9
2017-08-14T03:27:11.401Z,13.9
2017-08-14T03:28:19.181Z,13.9
2017-08-14T03:29:26.339Z,13.9
2017-08-14T03:30:33.820Z,13.9
2017-08-14T03:31:41.303Z,13.9
2017-08-14T03:32:48.777Z,13.8
2017-08-14T03:33:56.555Z,13.8
2017-08-14T03:35:04.032Z,13.8
2017-08-14T03:36:11.523Z,13.8
2017-08-14T03:37:18.996Z,13.8
2017-08-14T03:38:26.498Z,13.8
2017-08-14T03:39:33.983Z,13.8
2017-08-14T03:40:41.470Z,13.8
2017-08-14T03:41:48.955Z,13.7
2017-08-14T03:42:56.440Z,13.7
2017-08-14T03:44:03.914Z,13.7
2017-08-14T03:45:11.696Z,13.7
2017-08-14T03:46:19.177Z,13.7
2017-08-14T03:47:26.651Z,13.7
2017-08-14T03:48:33.808Z,13.7
2017-08-14T03:49:40.958Z,13.7
2017-08-14T03:50:48.737Z,13.7
2017-08-14T03:51:56.214Z,13.7
2017-08-14T03:53:03.691Z,13.7
2017-08-14T03:54:10.836Z,13.6
2017-08-14T03:55:18.309Z,13.6
2017-08-14T03:56:25.765Z,13.6
2017-08-14T03:57:33.238Z,13.6
2017-08-14T03:58:40.718Z,13.6
2017-08-14T03:59:48.211Z,13.6
2017-08-14T04:00:55.693Z,13.6
2017-08-14T04:02:03.534Z,13.6
2017-08-14T04:03:11.009Z,13.6
2017-08-14T04:04:18.485Z,13.6
2017-08-14T04:05:25.976Z,13.6
2017-08-14T04:06:33.450Z,13.6
2017-08-14T04:07:41.283Z,13.6
2017-08-14T04:08:48.763Z,13.6
2017-08-14T04:09:55.914Z,13.6
2017-08-14T04:11:03.064Z,13.7
2017-08-14T04:12:10.545Z,13.7
2017-08-14T04:13:18.375Z,13.7
2017-08-14T04:14:25.853Z,13.7
2017-08-14T04:15:33.326Z,13.7
2017-08-14T04:16:40.829Z,13.7
2017-08-14T04:17:48.315Z,13.8
2017-08-14T04:18:56.137Z,13.7
2017-08-14T04:20:03.613Z,13.8
2017-08-14T04:21:11.090Z,13.8
2017-08-14T04:22:18.571Z,13.8
2017-08-14T04:23:25.715Z,13.8
2017-08-14T04:24:33.172Z,13.8
2017-08-14T04:25:40.653Z,13.8
2017-08-14T04:26:47.790Z,13.9
2017-08-14T04:27:55.270Z,13.9
2017-08-14T04:29:02.757Z,13.9
2017-08-14T04:30:10.581Z,13.8
2017-08-14T04:31:18.059Z,13.8
2017-08-14T04:32:25.541Z,13.8
2017-08-14T04:33:32.711Z,13.8
2017-08-14T04:34:39.859Z,13.8
2017-08-14T04:35:47.314Z,13.8
2017-08-14T04:36:54.466Z,13.8
2017-08-14T04:38:01.625Z,13.8
2017-08-14T04:39:09.103Z,13.9
2017-08-14T04:40:16.584Z,13.9
2017-08-14T04:41:24.411Z,13.9
2017-08-14T04:42:31.558Z,14
2017-08-14T04:43:39.041Z,14
2017-08-14T04:44:46.516Z,14
2017-08-14T04:45:53.670Z,14
2017-08-14T04:47:01.509Z,14
2017-08-14T04:48:08.659Z,14
2017-08-14T04:49:16.137Z,14
2017-08-14T04:50:23.614Z,14
2017-08-14T04:51:31.095Z,14
2017-08-14T04:52:38.922Z,14
2017-08-14T04:53:46.402Z,14
2017-08-14T04:54:53.882Z,13.9
2017-08-14T04:56:01.365Z,13.9
2017-08-14T04:57:08.514Z,13.9
2017-08-14T04:58:16.294Z,13.9
2017-08-14T04:59:23.778Z,13.9
2017-08-14T05:00:31.258Z,13.9
2017-08-14T05:01:38.410Z,14
2017-08-14T05:02:45.887Z,14
2017-08-14T05:03:53.673Z,14
2017-08-14T05:05:01.150Z,14
2017-08-14T05:06:08.627Z,14.1
2017-08-14T05:07:16.107Z,14.1
2017-08-14T05:08:23.584Z,14.1
2017-08-14T05:09:31.108Z,14.1
2017-08-14T05:10:38.266Z,14.2
2017-08-14T05:11:45.424Z,14.1
2017-08-14T05:12:53.874Z,14.2
2017-08-14T05:14:01.360Z,14.2
2017-08-14T05:15:09.150Z,14.3
2017-08-14T05:16:16.631Z,14.3
2017-08-14T05:17:24.118Z,14.4
2017-08-14T05:18:31.589Z,14.4
2017-08-14T05:19:39.076Z,14.5
2017-08-14T05:20:46.555Z,14.5
2017-08-14T05:21:54.038Z,14.5
2017-08-14T05:23:01.521Z,14.6
2017-08-14T05:24:08.999Z,14.6
2017-08-14T05:25:16.479Z,14.6
2017-08-14T05:26:24.262Z,14.7
2017-08-14T05:27:31.741Z,14.7
2017-08-14T05:28:39.224Z,14.7
2017-08-14T05:29:46.702Z,14.8
2017-08-14T05:31:08.779Z,14.8
2017-08-14T05:32:16.556Z,14.8
2017-08-14T05:33:24.034Z,14.9
2017-08-14T05:34:31.566Z,14.9
2017-08-14T05:35:39.048Z,15
2017-08-14T05:36:46.536Z,15
2017-08-14T05:37:54.027Z,15.1
2017-08-14T05:39:00.859Z,15.1
2017-08-14T05:40:08.000Z,15.1
2017-08-14T05:41:15.485Z,15.1
2017-08-14T05:42:22.963Z,15.1
2017-08-14T05:43:30.742Z,15.1
2017-08-14T05:44:38.225Z,15.2
2017-08-14T05:47:07.447Z,15.2
2017-08-14T05:48:14.931Z,15.3
2017-08-14T05:49:22.712Z,15.3
2017-08-14T05:50:29.866Z,15.3
2017-08-14T05:51:37.346Z,15.4
2017-08-14T05:52:44.822Z,15.5
2017-08-14T05:53:52.297Z,15.5
2017-08-14T05:54:59.774Z,15.5
2017-08-14T05:56:07.249Z,15.6
2017-08-14T05:57:14.725Z,15.6
2017-08-14T05:58:22.208Z,15.6
2017-08-14T05:59:29.692Z,15.6
2017-08-14T06:00:37.482Z,15.7
2017-08-14T06:01:44.632Z,15.7
2017-08-14T06:02:52.112Z,15.7
2017-08-14T06:03:59.590Z,15.7
2017-08-14T06:05:07.068Z,15.8
2017-08-14T06:06:14.517Z,15.8
2017-08-14T06:07:21.993Z,15.9
2017-08-14T06:08:29.479Z,15.9
2017-08-14T06:09:36.964Z,16
2017-08-14T06:10:44.446Z,16.1
2017-08-14T06:11:52.226Z,16.2
2017-08-14T06:12:59.742Z,16.3
2017-08-14T06:14:06.898Z,16.4
2017-08-14T06:15:14.380Z,16.4
2017-08-14T06:16:21.868Z,16.6
2017-08-14T06:17:29.368Z,16.6
2017-08-14T06:18:36.850Z,16.6
2017-08-14T06:19:44.328Z,16.7
2017-08-14T06:20:51.804Z,16.7
2017-08-14T06:21:59.303Z,16.9
2017-08-14T06:23:07.083Z,17.1
2017-08-14T06:24:14.559Z,17.4
2017-08-14T06:25:22.047Z,17.6
2017-08-14T06:26:29.524Z,17.8
2017-08-14T06:27:37.005Z,17.9
2017-08-14T06:28:44.835Z,17.9
2017-08-14T06:29:52.335Z,17.9
2017-08-14T06:30:59.487Z,18
2017-08-14T06:32:06.647Z,18.1
2017-08-14T06:33:14.385Z,18.2
2017-08-14T06:34:22.207Z,18.3
2017-08-14T06:35:29.360Z,18.5
2017-08-14T06:36:37.080Z,18.5
2017-08-14T06:37:44.568Z,18.6
2017-08-14T06:38:52.048Z,18.8
2017-08-14T06:39:59.873Z,18.9
2017-08-14T06:41:07.351Z,18.9
2017-08-14T06:42:14.847Z,18.9
2017-08-14T06:43:22.353Z,19
2017-08-14T06:44:29.842Z,19.2
2017-08-14T06:45:37.624Z,19.3
2017-08-14T06:46:44.779Z,19.3
2017-08-14T06:47:52.260Z,19.3
2017-08-14T06:48:59.745Z,19.3
2017-08-14T06:50:07.227Z,19.4
2017-08-14T06:51:15.063Z,19.6
2017-08-14T06:52:22.553Z,19.8
2017-08-14T06:53:29.381Z,20.1
2017-08-14T06:54:36.861Z,20.2
2017-08-14T06:55:44.018Z,20.3
2017-08-14T06:56:51.507Z,20.3
2017-08-14T06:57:59.000Z,20.2
2017-08-14T06:59:06.793Z,20.3
2017-08-14T07:00:14.305Z,20.3
2017-08-14T07:01:21.803Z,20.5
2017-08-14T07:02:29.286Z,20.8
2017-08-14T07:03:36.429Z,20.8
2017-08-14T07:04:44.235Z,21
2017-08-14T07:05:51.717Z,21.1
2017-08-14T07:06:59.200Z,21.1
2017-08-14T07:08:06.939Z,21.2
2017-08-14T07:09:14.433Z,21.3
2017-08-14T07:10:22.218Z,21.6
2017-08-14T07:11:29.387Z,21.8
2017-08-14T07:12:36.554Z,21.9
2017-08-14T07:13:44.036Z,22
2017-08-14T07:14:51.528Z,22
2017-08-14T07:15:59.307Z,21.7
2017-08-14T07:17:06.790Z,21.8
2017-08-14T07:18:14.281Z,22
2017-08-14T07:19:21.111Z,22.2
2017-08-14T07:20:28.605Z,22.5
2017-08-14T07:21:36.387Z,22.3
2017-08-14T07:22:43.878Z,22.1
2017-08-14T07:23:51.361Z,22
2017-08-14T07:24:58.526Z,22
2017-08-14T07:26:06.002Z,22.1
2017-08-14T07:27:13.786Z,22.4
2017-08-14T07:28:21.271Z,22.7
2017-08-14T07:29:28.766Z,22.8
2017-08-14T07:30:36.259Z,23
2017-08-14T07:31:43.742Z,23.1
2017-08-14T07:32:51.199Z,23.2
2017-08-14T07:33:58.355Z,23.1
2017-08-14T07:35:05.852Z,23.3
2017-08-14T07:36:13.337Z,23.5
2017-08-14T07:37:20.821Z,23.5
2017-08-14T07:38:28.611Z,23.2
2017-08-14T07:39:36.094Z,22.7
2017-08-14T07:40:43.576Z,22.8
2017-08-14T07:41:50.727Z,22.9
2017-08-14T07:42:59.104Z,23
2017-08-14T07:44:06.228Z,23.2
2017-08-14T07:45:13.907Z,23.3
2017-08-14T07:46:21.395Z,23.4
2017-08-14T07:47:28.576Z,23.7
2017-08-14T07:48:36.065Z,24.2
2017-08-14T07:49:43.857Z,24.5
2017-08-14T07:50:51.338Z,24.6
2017-08-14T07:51:58.820Z,24.5
2017-08-14T07:53:06.330Z,24.5
2017-08-14T07:54:13.812Z,24.6
2017-08-14T07:55:21.598Z,24.5
2017-08-14T07:56:29.088Z,24.5
2017-08-14T07:57:36.240Z,24.5
2017-08-14T07:58:43.738Z,24
2017-08-14T07:59:51.231Z,23.6
2017-08-14T08:00:58.695Z,23.8
2017-08-14T08:02:06.185Z,23.8
2017-08-14T08:03:13.677Z,23.8
2017-08-14T08:04:21.159Z,23.8
2017-08-14T08:05:28.648Z,23.9
2017-08-14T08:06:36.438Z,24.1
2017-08-14T08:07:43.594Z,24.2
2017-08-14T08:08:50.749Z,24.1
2017-08-14T08:09:58.236Z,24.2
2017-08-14T08:11:05.734Z,24.2
2017-08-14T08:12:13.524Z,24.1
2017-08-14T08:13:20.707Z,24.1
2017-08-14T08:14:28.205Z,23.9
2017-08-14T08:15:35.694Z,23.9
2017-08-14T08:16:42.852Z,23.9
2017-08-14T08:17:50.333Z,24
2017-08-14T08:18:57.843Z,23.8
2017-08-14T08:20:05.015Z,23.8
2017-08-14T08:21:12.848Z,23.9
2017-08-14T08:22:20.014Z,24.1
2017-08-14T08:23:27.511Z,24.3
2017-08-14T08:24:34.996Z,24.3
2017-08-14T08:25:42.486Z,24.2
2017-08-14T08:26:49.947Z,24.1
2017-08-14T08:27:57.098Z,24
2017-08-14T08:29:04.584Z,23.9
2017-08-14T08:30:12.096Z,24.2
2017-08-14T08:31:19.589Z,24.5
2017-08-14T08:32:27.102Z,24.7
2017-08-14T08:33:34.279Z,24.7
2017-08-14T08:34:41.764Z,24.9
2017-08-14T08:35:49.256Z,24.8
2017-08-14T08:36:56.743Z,24.5
2017-08-14T08:38:04.241Z,24.5
2017-08-14T08:39:11.726Z,24.6
2017-08-14T08:40:18.557Z,24.8
2017-08-14T08:41:26.053Z,24.9
2017-08-14T08:42:33.531Z,24.9
2017-08-14T08:43:41.371Z,25.1
2017-08-14T08:44:48.860Z,25.5
2017-08-14T08:45:56.354Z,25.9
2017-08-14T08:47:03.840Z,26.2
2017-08-14T08:48:11.332Z,26
2017-08-14T08:49:18.792Z,26.1
2017-08-14T08:50:26.284Z,25.8
2017-08-14T08:51:33.771Z,24.7
2017-08-14T08:52:41.422Z,24.5
2017-08-14T08:53:48.587Z,24.4
2017-08-14T08:54:56.107Z,24.6
2017-08-14T08:56:03.623Z,24.8
2017-08-14T08:57:11.114Z,25
2017-08-14T08:58:18.639Z,25.2
2017-08-14T08:59:26.126Z,25.4
2017-08-14T09:00:33.610Z,25.4
2017-08-14T09:01:41.096Z,25.6
2017-08-14T09:02:48.594Z,25.5
2017-08-14T09:03:56.096Z,25.7
2017-08-14T09:05:03.934Z,25.5
2017-08-14T09:06:11.425Z,25.6
2017-08-14T09:07:18.585Z,25.8
2017-08-14T09:08:26.077Z,25.7
2017-08-14T09:09:33.574Z,26
2017-08-14T09:10:40.701Z,26.1
2017-08-14T09:11:48.186Z,26
2017-08-14T09:12:55.675Z,25.7
2017-08-14T09:14:03.164Z,25.8
2017-08-14T09:15:10.683Z,26.1
2017-08-14T09:16:18.525Z,26.4
2017-08-14T09:17:26.022Z,26.7
2017-08-14T09:18:33.509Z,26.7
2017-08-14T09:19:41.002Z,26.5
2017-08-14T09:20:48.496Z,26.2
2017-08-14T09:21:56.336Z,25.7
2017-08-14T09:23:03.819Z,25.8
2017-08-14T09:24:11.309Z,25.5
2017-08-14T09:25:18.820Z,25.5
2017-08-14T09:26:26.308Z,25.3
2017-08-14T09:27:33.797Z,25.4
2017-08-14T09:28:40.631Z,25.7
2017-08-14T09:29:48.116Z,26
2017-08-14T09:30:55.608Z,26.1
2017-08-14T09:32:03.096Z,25.9
2017-08-14T09:33:10.933Z,26.1
2017-08-14T09:34:18.462Z,26.4
2017-08-14T09:35:25.998Z,26.3
2017-08-14T09:36:33.498Z,26
2017-08-14T09:37:40.984Z,26
2017-08-14T09:38:48.797Z,25.7
2017-08-14T09:39:56.297Z,25.7
2017-08-14T09:41:03.784Z,25.8
2017-08-14T09:42:11.279Z,25.9
2017-08-14T09:43:18.796Z,26
2017-08-14T09:44:26.595Z,26
2017-08-14T09:45:34.091Z,25.9
2017-08-14T09:46:41.580Z,25.9
2017-08-14T09:47:49.059Z,26
2017-08-14T09:48:56.218Z,26.2
2017-08-14T09:50:04.011Z,26.1
2017-08-14T09:51:11.169Z,25.9
2017-08-14T09:52:18.667Z,25.9
2017-08-14T09:53:26.156Z,26.2
2017-08-14T09:54:33.647Z,26.5
2017-08-14T09:55:41.464Z,26
2017-08-14T09:56:48.635Z,25.9
2017-08-14T09:57:55.789Z,25.6
2017-08-14T09:59:03.278Z,25.5
2017-08-14T10:00:10.428Z,25.4
2017-08-14T10:01:17.883Z,25.5
2017-08-14T10:02:25.375Z,25.5
2017-08-14T10:03:32.538Z,25.7
2017-08-14T10:04:40.028Z,25.7
2017-08-14T10:05:47.521Z,25.5
2017-08-14T10:06:55.305Z,25.7
2017-08-14T10:08:02.799Z,26
2017-08-14T10:09:10.285Z,26.3
2017-08-14T10:10:17.781Z,26.4
2017-08-14T10:11:25.268Z,26.8
2017-08-14T10:12:33.061Z,27
2017-08-14T10:13:40.550Z,26.9
2017-08-14T10:14:48.041Z,27.1
2017-08-14T10:15:55.541Z,27.3
2017-08-14T10:17:03.048Z,27.3
2017-08-14T10:18:10.845Z,27.1
2017-08-14T10:19:18.341Z,27.4
2017-08-14T10:20:25.860Z,27.2
2017-08-14T10:21:33.369Z,27
2017-08-14T10:22:40.855Z,26.8
2017-08-14T10:23:48.649Z,26.9
2017-08-14T10:24:55.808Z,26.9
2017-08-14T10:26:03.301Z,27
2017-08-14T10:27:10.794Z,27
2017-08-14T10:28:17.958Z,27.2
2017-08-14T10:29:25.741Z,27.2
2017-08-14T10:30:33.249Z,27.3
2017-08-14T10:31:40.737Z,27.3
2017-08-14T10:32:48.229Z,27.1
2017-08-14T10:33:55.398Z,27.2
2017-08-14T10:35:02.869Z,26.9
2017-08-14T10:36:10.356Z,26.8
2017-08-14T10:37:17.853Z,27
2017-08-14T10:38:25.019Z,27.1
2017-08-14T10:39:32.509Z,27.1
2017-08-14T10:40:40.299Z,27.4
2017-08-14T10:41:47.791Z,27.6
2017-08-14T10:42:55.277Z,27.1
2017-08-14T10:44:02.764Z,26.8
2017-08-14T10:45:13.377Z,26.7
2017-08-14T10:46:20.861Z,27
2017-08-14T10:47:28.357Z,27.2
2017-08-14T10:48:35.854Z,27.5
2017-08-14T10:49:43.019Z,27.7
2017-08-14T10:50:50.511Z,27.8
2017-08-14T10:51:58.298Z,27.7
2017-08-14T10:53:05.795Z,27.7
2017-08-14T10:54:13.289Z,27.6
2017-08-14T10:55:20.775Z,27.6
2017-08-14T10:56:28.260Z,27.2
2017-08-14T10:57:36.070Z,27.1
2017-08-14T10:58:43.557Z,27.1
2017-08-14T10:59:51.052Z,27.1
2017-08-14T11:00:58.546Z,27.3
2017-08-14T11:02:06.046Z,27.3
2017-08-14T11:03:13.542Z,27.5
2017-08-14T11:04:21.035Z,27.8
2017-08-14T11:05:28.520Z,28.1
2017-08-14T11:06:36.009Z,28.2
2017-08-14T11:07:43.126Z,28.4
2017-08-14T11:08:50.590Z,28.1
2017-08-14T11:09:58.424Z,27.8
2017-08-14T11:11:05.755Z,27.7
2017-08-14T11:12:13.251Z,27.4
2017-08-14T11:13:20.741Z,27.5
2017-08-14T11:14:28.768Z,27.9
2017-08-14T11:15:36.247Z,28.2
2017-08-14T11:16:43.744Z,28.3
2017-08-14T11:17:51.242Z,28.6
2017-08-14T11:18:58.785Z,28.7
2017-08-14T11:20:05.946Z,28.6
2017-08-14T11:21:13.414Z,28.4
2017-08-14T11:22:20.912Z,27.8
2017-08-14T11:23:29.364Z,27.9
2017-08-14T11:24:36.859Z,28.3
2017-08-14T11:25:44.359Z,28.4
2017-08-14T11:26:52.138Z,28.5
2017-08-14T11:27:59.628Z,28.4
2017-08-14T11:29:06.795Z,28.6
2017-08-14T11:30:14.281Z,28.9
2017-08-14T11:31:21.771Z,29.1
2017-08-14T11:32:29.561Z,29.2
2017-08-14T11:33:36.723Z,29.4
2017-08-14T11:34:43.872Z,29.2
2017-08-14T11:35:51.360Z,29.1
2017-08-14T11:36:58.854Z,29
2017-08-14T11:38:06.351Z,29
2017-08-14T11:39:13.841Z,28.9
2017-08-14T11:40:21.329Z,28.6
2017-08-14T11:41:28.821Z,28.3
2017-08-14T11:42:36.308Z,28
2017-08-14T11:43:43.768Z,28.1
2017-08-14T11:44:51.266Z,28.6
2017-08-14T11:45:58.759Z,29
2017-08-14T11:47:06.252Z,29.5
2017-08-14T11:48:13.741Z,29.4
2017-08-14T11:49:21.542Z,29.3
2017-08-14T11:50:28.695Z,29.2
2017-08-14T11:51:36.182Z,29.2
2017-08-14T11:52:43.666Z,29.2
2017-08-14T11:53:51.175Z,29.3
2017-08-14T11:54:58.664Z,29.5
2017-08-14T11:56:06.191Z,29.3
2017-08-14T11:57:13.347Z,29.6
2017-08-14T11:58:20.508Z,30.1
2017-08-14T11:59:27.998Z,30.2
2017-08-14T12:00:35.788Z,30
2017-08-14T12:01:42.950Z,29.9
2017-08-14T12:02:50.440Z,29.9
2017-08-14T12:03:57.934Z,29.8
2017-08-14T12:05:05.423Z,29.9
2017-08-14T12:06:12.938Z,29.9
2017-08-14T12:07:20.112Z,29.9
2017-08-14T12:08:27.600Z,29.6
2017-08-14T12:09:35.088Z,29.3
2017-08-14T12:10:42.576Z,29.4
2017-08-14T12:11:50.415Z,29.7
2017-08-14T12:14:20.482Z,29.6
2017-08-14T12:15:27.978Z,29.4
2017-08-14T12:16:35.134Z,29.2
2017-08-14T12:17:42.643Z,29.3
2017-08-14T12:18:50.142Z,29.3
2017-08-14T12:19:57.297Z,29.3
2017-08-14T12:21:04.793Z,29.3
2017-08-14T12:22:11.981Z,28.9
2017-08-14T12:23:19.828Z,28.5
2017-08-14T12:24:27.314Z,28.7
2017-08-14T12:25:34.810Z,29.1
2017-08-14T12:26:42.298Z,29.3
2017-08-14T12:27:50.976Z,29.5
2017-08-14T12:28:58.821Z,29.4
2017-08-14T12:30:06.316Z,29.1
2017-08-14T12:31:13.809Z,28.8
2017-08-14T12:32:21.303Z,28.4
2017-08-14T12:33:28.801Z,27.9
2017-08-14T12:34:36.640Z,27.8
2017-08-14T12:35:44.133Z,27.7
2017-08-14T12:36:51.629Z,27.5
2017-08-14T12:37:59.118Z,27.5
2017-08-14T12:39:06.611Z,27.6
2017-08-14T12:40:14.457Z,28
2017-08-14T12:41:21.948Z,28.5
2017-08-14T12:42:29.436Z,28.8
2017-08-14T12:43:36.927Z,29.2
2017-08-14T12:44:44.425Z,29.7
2017-08-14T12:45:52.208Z,29.6
2017-08-14T12:46:59.701Z,29.9
2017-08-14T12:48:06.861Z,30.3
2017-08-14T12:49:14.359Z,30.6
2017-08-14T12:50:21.855Z,30.4
2017-08-14T12:51:29.707Z,30.3
2017-08-14T12:52:37.203Z,30.5
2017-08-14T12:53:44.695Z,30.8
2017-08-14T12:54:52.193Z,31.2
2017-08-14T12:55:59.712Z,31.3
2017-08-14T12:57:07.500Z,31.3
2017-08-14T12:58:14.995Z,31.4
2017-08-14T12:59:22.492Z,31.2
2017-08-14T13:00:29.652Z,31.1
2017-08-14T13:01:37.145Z,31.4
2017-08-14T13:02:44.605Z,31
2017-08-14T13:03:52.108Z,30.4
2017-08-14T13:04:59.263Z,29.9
2017-08-14T13:06:06.754Z,29.4
2017-08-14T13:07:14.253Z,29.1
2017-08-14T13:08:23.496Z,29.3
2017-08-14T13:09:30.985Z,29.2
2017-08-14T13:10:38.473Z,29.2
2017-08-14T13:11:45.972Z,29.2
2017-08-14T13:12:52.810Z,29.6
2017-08-14T13:14:00.298Z,29.9
2017-08-14T13:15:07.786Z,30
2017-08-14T13:16:15.282Z,30.2
2017-08-14T13:17:22.461Z,30.2
2017-08-14T13:18:29.943Z,30.6
2017-08-14T13:19:37.405Z,30.9
2017-08-14T13:20:44.563Z,31.3
2017-08-14T13:21:52.054Z,31.2
2017-08-14T13:22:59.541Z,30.8
2017-08-14T13:24:07.032Z,30.9
2017-08-14T13:25:14.501Z,31.1
2017-08-14T13:26:21.668Z,30.9
2017-08-14T13:27:28.832Z,30.7
2017-08-14T13:28:36.342Z,30.8
2017-08-14T13:29:43.834Z,31
2017-08-14T13:30:51.629Z,31.4
2017-08-14T13:31:59.119Z,31.6
2017-08-14T13:33:06.605Z,31.7
2017-08-14T13:34:14.112Z,31.7
2017-08-14T13:35:21.609Z,31.6
2017-08-14T13:36:29.415Z,30.9
2017-08-14T13:37:36.575Z,30.4
2017-08-14T13:38:44.072Z,30
2017-08-14T13:39:51.566Z,30
2017-08-14T13:40:59.059Z,30.2
2017-08-14T13:42:06.551Z,30.3
2017-08-14T13:43:14.045Z,30.4
2017-08-14T13:44:21.538Z,30.7
2017-08-14T13:45:28.712Z,30.9
2017-08-14T13:46:36.505Z,30.7
2017-08-14T13:47:44.000Z,31
2017-08-14T13:48:51.510Z,31.4
2017-08-14T13:49:58.670Z,31.7
2017-08-14T13:51:06.184Z,32
2017-08-14T13:52:13.976Z,32
2017-08-14T13:53:21.139Z,31.5
2017-08-14T13:54:28.634Z,31.1
2017-08-14T13:55:36.122Z,31.1
2017-08-14T13:56:43.628Z,30.8
2017-08-14T13:57:51.095Z,30.4
2017-08-14T13:58:57.928Z,30
2017-08-14T14:00:05.089Z,29.5
2017-08-14T14:01:12.328Z,29.6
2017-08-14T14:02:19.822Z,29.5
2017-08-14T14:03:27.634Z,29.7
2017-08-14T14:04:34.812Z,29.8
2017-08-14T14:05:42.306Z,30.1
2017-08-14T14:06:49.828Z,30.2
2017-08-14T14:07:57.342Z,30.2
2017-08-14T14:09:05.662Z,30.3
2017-08-14T14:10:13.164Z,30.4
2017-08-14T14:11:20.661Z,30.2
2017-08-14T14:12:28.150Z,29.8
2017-08-14T14:13:35.636Z,29.6
2017-08-14T14:14:43.483Z,29.3
2017-08-14T14:15:50.974Z,29.2
2017-08-14T14:16:58.140Z,28.8
2017-08-14T14:18:05.629Z,28.9
2017-08-14T14:19:12.791Z,29.2
2017-08-14T14:20:20.640Z,29.2
2017-08-14T14:21:28.132Z,29.4
2017-08-14T14:22:35.657Z,29.4
2017-08-14T14:23:43.151Z,29.4
2017-08-14T14:24:50.317Z,29.6
2017-08-14T14:25:58.163Z,29.8
2017-08-14T14:27:05.654Z,30.1
2017-08-14T14:28:13.150Z,30.4
2017-08-14T14:29:20.640Z,30.6
2017-08-14T14:30:28.137Z,30.8
2017-08-14T14:31:35.985Z,30.7
2017-08-14T14:32:43.485Z,30.5
2017-08-14T14:33:50.982Z,30
2017-08-14T14:34:58.477Z,29.4
2017-08-14T14:36:05.969Z,29
2017-08-14T14:37:13.805Z,29
2017-08-14T14:38:21.303Z,29.3
2017-08-14T14:39:28.801Z,29
2017-08-14T14:40:35.956Z,28.9
2017-08-14T14:41:43.447Z,29
2017-08-14T14:42:51.242Z,29.4
2017-08-14T14:43:58.405Z,29.8
2017-08-14T14:45:05.897Z,30.3
2017-08-14T14:46:13.389Z,30.4
2017-08-14T14:47:20.883Z,30.7
2017-08-14T14:48:28.346Z,31.1
2017-08-14T14:49:35.844Z,30.9
2017-08-14T14:50:43.344Z,31
2017-08-14T14:51:50.839Z,31.1
2017-08-14T14:52:58.335Z,31.1
2017-08-14T14:54:06.123Z,30.7
2017-08-14T14:55:13.619Z,30.7
2017-08-14T14:56:21.105Z,31
2017-08-14T14:57:28.599Z,30.8
2017-08-14T14:58:36.097Z,30.3
2017-08-14T14:59:45.340Z,30.3
2017-08-14T15:00:52.834Z,30.2
2017-08-14T15:02:00.326Z,30.2
2017-08-14T15:03:07.830Z,30.3
2017-08-14T15:04:15.323Z,30.2
2017-08-14T15:05:23.115Z,30.6
2017-08-14T15:06:30.602Z,30.9
2017-08-14T15:07:38.092Z,30.7
2017-08-14T15:08:45.585Z,30.6
2017-08-14T15:09:53.274Z,30.9
2017-08-14T15:11:01.131Z,31.1
2017-08-14T15:12:08.625Z,30.3